Time;durP1;ratioP1;P1;durP2;ratioP2;P2;SDS_P1;SDS_P2;PMS_P1;PMS_P2;Temp;Humidity;BMP_temperature;BMP_pressure;BME280_temperature;BME280_humidity;BME280_pressure;Samples;Min_cycle;Max_cycle;Signal;HPM_P1;HPM_P2
2022/03/13 00:41:01;;;;;;;;;;;;;;;;;;;;;
2022/03/13 00:43:33;;;;;;;25.85;15.52;;;5.80;91.00;;;;;;4994348;28;20231;-89
2022/03/13 00:46:08;;;;;;;23.85;15.63;;;5.80;90.70;;;;;;5003039;28;20255;-88
2022/03/13 00:48:47;;;;;;;27.55;17.27;;;5.70;91.10;;;;;;5001602;28;20650;-89
2022/03/13 00:51:29;;;;;;;24.45;17.23;;;5.60;91.00;;;;;;5002138;28;20211;-88
2022/03/13 00:53:59;;;;;;;29.30;16.80;;;5.70;91.00;;;;;;5003422;28;20234;-89
2022/03/13 00:56:26;;;;;;;26.17;16.70;;;5.30;90.90;;;;;;5002369;28;20262;-89
2022/03/13 00:58:54;;;;;;;25.35;15.48;;;5.30;91.30;;;;;;5002991;28;20232;-88
2022/03/13 01:01:21;;;;;;;24.23;15.75;;;5.70;91.70;;;;;;5003598;28;20203;-89
2022/03/13 01:03:51;;;;;;;26.10;15.90;;;5.40;91.50;;;;;;5004002;28;20232;-88
2022/03/13 01:06:38;;;;;;;24.27;15.98;;;4.90;91.50;;;;;;5005129;28;20223;-88
2022/03/13 01:09:05;;;;;;;30.55;18.58;;;5.30;92.10;;;;;;5012511;28;20188;-87
2022/03/13 01:11:34;;;;;;;28.30;16.60;;;5.40;92.10;;;;;;5015808;28;20228;-86
2022/03/13 01:14:03;;;;;;;24.35;16.38;;;5.30;92.10;;;;;;5014987;28;20595;-87
2022/03/13 01:16:35;;;;;;;27.30;17.80;;;5.20;92.30;;;;;;5014648;28;20208;-87
2022/03/13 01:19:03;;;;;;;23.58;17.10;;;5.00;92.40;;;;;;5014879;28;20223;-87
2022/03/13 01:21:33;;;;;;;29.77;17.50;;;5.20;92.50;;;;;;5001945;28;20223;-86
2022/03/13 01:24:23;;;;;;;27.20;17.10;;;5.10;92.60;;;;;;5004621;28;20224;-88
2022/03/13 01:26:54;;;;;;;26.08;17.58;;;5.10;92.70;;;;;;5003707;28;20223;-89
2022/03/13 01:29:23;;;;;;;25.90;16.13;;;4.80;92.60;;;;;;5002373;28;20219;-89
2022/03/13 01:31:50;;;;;;;27.27;17.25;;;5.30;92.90;;;;;;5001726;28;20204;-88
2022/03/13 01:34:45;;;;;;;24.45;17.52;;;5.20;92.90;;;;;;5000767;28;20410;-88
2022/03/13 01:37:28;;;;;;;27.77;19.25;;;4.80;92.80;;;;;;5014825;28;20181;-87
2022/03/13 01:39:58;;;;;;;27.67;17.85;;;5.20;92.90;;;;;;5018352;28;20204;-86
2022/03/13 01:42:26;;;;;;;26.05;16.42;;;5.50;92.50;;;;;;5017852;28;20223;-88
2022/03/13 01:44:54;;;;;;;28.48;17.73;;;5.20;92.30;;;;;;5014120;28;20224;-87
2022/03/13 01:47:23;;;;;;;27.75;16.38;;;5.50;92.40;;;;;;5013753;28;20204;-88
2022/03/13 01:49:54;;;;;;;32.60;16.25;;;5.60;92.40;;;;;;5005317;28;20208;-89
2022/03/13 01:52:26;;;;;;;27.30;17.88;;;5.40;92.10;;;;;;5017333;28;20188;-86
2022/03/13 01:54:55;;;;;;;26.65;17.45;;;5.40;92.20;;;;;;5009303;28;20589;-88
2022/03/13 01:57:23;;;;;;;29.73;17.25;;;5.30;92.40;;;;;;5009778;28;20208;-88
2022/03/13 01:59:54;;;;;;;26.73;16.98;;;5.20;92.60;;;;;;5013097;28;20196;-86
2022/03/13 02:02:25;;;;;;;25.13;16.92;;;5.20;92.70;;;;;;4997860;28;20247;-87
2022/03/13 02:04:54;;;;;;;22.48;16.00;;;5.00;92.40;;;;;;4998150;28;20220;-88
2022/03/13 02:07:22;;;;;;;24.38;17.00;;;5.30;92.40;;;;;;4999672;28;20212;-88
2022/03/13 02:09:50;;;;;;;26.40;16.60;;;5.30;92.20;;;;;;5000849;28;20212;-88
2022/03/13 02:12:20;;;;;;;29.10;16.45;;;5.20;92.40;;;;;;4999043;28;20211;-88
2022/03/13 02:14:48;;;;;;;24.63;15.32;;;5.20;92.60;;;;;;4999084;28;20698;-88
2022/03/13 02:17:27;;;;;;;22.75;16.20;;;5.00;92.50;;;;;;5000493;28;20208;-88
2022/03/13 02:19:56;;;;;;;25.20;16.23;;;5.10;92.60;;;;;;5000451;28;20219;-87
2022/03/13 02:22:23;;;;;;;29.38;17.05;;;5.20;92.60;;;;;;5008170;28;20246;-88
2022/03/13 02:24:52;;;;;;;25.85;16.17;;;5.20;92.60;;;;;;5008167;28;20236;-87
2022/03/13 02:27:25;;;;;;;22.02;15.75;;;4.60;92.40;;;;;;5004172;28;20212;-88
2022/03/13 02:29:55;;;;;;;26.65;16.90;;;4.60;92.60;;;;;;5012758;28;20192;-87
2022/03/13 02:32:22;;;;;;;31.02;16.33;;;4.90;92.80;;;;;;5016387;28;20219;-86
2022/03/13 02:34:55;;;;;;;27.20;17.23;;;4.90;92.80;;;;;;5017218;28;20231;-88
2022/03/13 02:37:36;;;;;;;23.48;15.48;;;4.80;92.90;;;;;;5000986;28;20207;-88
2022/03/13 02:40:16;;;;;;;23.33;15.40;;;4.40;92.90;;;;;;5001724;28;20223;-87
2022/03/13 02:42:45;;;;;;;25.73;16.45;;;4.80;92.90;;;;;;5003061;28;20212;-88
2022/03/13 02:45:22;;;;;;;25.45;15.98;;;4.70;93.10;;;;;;5004085;28;20315;-88
2022/03/13 02:47:49;;;;;;;28.30;15.80;;;4.30;92.80;;;;;;5010357;28;20208;-89
2022/03/13 02:50:19;;;;;;;25.48;16.40;;;4.30;92.60;;;;;;5018046;28;20196;-88
2022/03/13 02:52:49;;;;;;;23.45;15.18;;;4.70;92.80;;;;;;5006669;28;20252;-88
2022/03/13 02:55:18;;;;;;;27.27;16.48;;;4.70;92.70;;;;;;5005244;28;20659;-89
2022/03/13 02:57:48;;;;;;;25.73;16.13;;;4.80;92.80;;;;;;5003502;28;20200;-88
2022/03/13 03:00:17;;;;;;;23.40;15.95;;;4.60;92.90;;;;;;5003286;28;20204;-88
2022/03/13 03:02:45;;;;;;;26.08;17.05;;;4.60;93.00;;;;;;5002747;28;20211;-87
2022/03/13 03:05:12;;;;;;;22.95;15.25;;;4.50;93.00;;;;;;5004111;28;20315;-88
2022/03/13 03:07:42;;;;;;;23.50;15.77;;;4.50;93.10;;;;;;5005427;28;20207;-87
2022/03/13 03:10:14;;;;;;;24.10;15.70;;;4.40;93.50;;;;;;5004264;28;20211;-88
2022/03/13 03:12:48;;;;;;;27.05;14.88;;;4.40;93.60;;;;;;5019385;28;20244;-84
2022/03/13 03:15:19;;;;;;;27.17;14.55;;;4.50;93.70;;;;;;5006546;28;20234;-87
2022/03/13 03:17:46;;;;;;;26.55;15.75;;;4.40;93.00;;;;;;5008666;28;20204;-89
2022/03/13 03:20:16;;;;;;;24.60;15.57;;;4.40;93.10;;;;;;5003639;28;20561;-87
2022/03/13 03:22:44;;;;;;;24.20;14.55;;;4.30;93.40;;;;;;5001616;28;20534;-87
2022/03/13 03:25:22;;;;;;;22.40;14.40;;;4.40;93.30;;;;;;5002071;28;20215;-87
2022/03/13 03:27:52;;;;;;;29.00;15.25;;;4.30;93.40;;;;;;5002068;28;20587;-88
2022/03/13 03:30:32;;;;;;;21.90;14.02;;;4.40;93.50;;;;;;5001052;28;20255;-88
2022/03/13 03:33:07;;;;;;;24.00;14.98;;;4.40;93.20;;;;;;5001525;28;20232;-87
2022/03/13 03:35:34;;;;;;;23.92;15.25;;;4.40;93.00;;;;;;5033636;23;20236;-84
2022/03/13 03:38:04;;;;;;;22.85;14.10;;;4.50;93.30;;;;;;4982263;28;20209;-84
2022/03/13 03:40:32;;;;;;;21.75;15.05;;;4.40;93.10;;;;;;4980246;28;20683;-84
2022/03/13 03:43:03;;;;;;;26.63;14.65;;;4.20;93.30;;;;;;4988391;28;20208;-84
2022/03/13 03:45:31;;;;;;;27.60;15.20;;;4.20;93.50;;;;;;4982934;28;20229;-84
2022/03/13 03:47:58;;;;;;;22.27;12.68;;;4.10;93.60;;;;;;4987823;28;20276;-83
2022/03/13 03:50:26;;;;;;;26.08;15.02;;;4.20;93.50;;;;;;4983274;28;20217;-84
2022/03/13 03:52:56;;;;;;;24.17;15.27;;;4.10;93.50;;;;;;4991870;28;20240;-84
2022/03/13 03:55:24;;;;;;;22.95;15.23;;;4.10;93.40;;;;;;4992284;28;20288;-83
2022/03/13 03:57:51;;;;;;;22.98;13.57;;;4.20;93.30;;;;;;4978999;28;20211;-83
2022/03/13 04:00:23;;;;;;;21.73;13.52;;;4.30;93.30;;;;;;4977888;28;20216;-83
2022/03/13 04:02:50;;;;;;;22.20;13.63;;;4.30;93.60;;;;;;4979738;28;20587;-85
2022/03/13 04:05:17;;;;;;;27.58;16.02;;;4.50;93.40;;;;;;4980693;28;20734;-83
2022/03/13 04:07:44;;;;;;;28.50;14.50;;;4.40;93.40;;;;;;4980290;28;20211;-83
2022/03/13 04:10:11;;;;;;;25.05;15.20;;;4.40;93.50;;;;;;4979355;28;20652;-82
2022/03/13 04:12:39;;;;;;;23.75;15.00;;;4.20;93.80;;;;;;4978646;28;20213;-84
2022/03/13 04:15:07;;;;;;;24.83;15.55;;;4.20;94.00;;;;;;4979556;28;20232;-83
2022/03/13 04:17:35;;;;;;;21.40;15.18;;;4.20;94.40;;;;;;4985904;28;20251;-82
2022/03/13 04:20:05;;;;;;;21.85;14.52;;;4.30;94.40;;;;;;4995913;28;20293;-83
2022/03/13 04:22:32;;;;;;;23.75;15.85;;;4.20;94.50;;;;;;4992226;28;20196;-83
2022/03/13 04:24:59;;;;;;;21.83;15.23;;;4.20;94.50;;;;;;4991558;28;20232;-83
2022/03/13 04:27:27;;;;;;;23.15;15.05;;;4.10;94.30;;;;;;4982747;28;20680;-82
2022/03/13 04:29:54;;;;;;;25.40;15.70;;;4.30;94.20;;;;;;4976288;28;20212;-83
2022/03/13 04:32:23;;;;;;;25.42;15.35;;;4.30;93.90;;;;;;4976790;28;20648;-83
2022/03/13 04:34:51;;;;;;;26.20;16.48;;;4.30;94.00;;;;;;4978555;28;20260;-83
2022/03/13 04:37:19;;;;;;;27.75;15.30;;;4.20;94.10;;;;;;4983186;28;20252;-83
2022/03/13 04:39:50;;;;;;;22.40;14.63;;;4.10;94.50;;;;;;4991347;28;20267;-83
2022/03/13 04:42:17;;;;;;;23.23;14.52;;;4.10;94.60;;;;;;4979015;28;20592;-82
2022/03/13 04:44:44;;;;;;;31.20;15.93;;;4.10;94.60;;;;;;4988595;28;20300;-83
2022/03/13 04:47:11;;;;;;;23.15;13.68;;;4.20;94.50;;;;;;4986611;28;20232;-83
2022/03/13 04:49:38;;;;;;;26.55;14.30;;;4.20;94.60;;;;;;4980555;28;20627;-84
2022/03/13 04:52:07;;;;;;;25.23;15.63;;;4.20;94.70;;;;;;4976758;28;20209;-83
2022/03/13 04:54:34;;;;;;;34.70;15.65;;;4.30;94.80;;;;;;4978506;28;20311;-84
2022/03/13 04:57:01;;;;;;;24.40;14.93;;;4.20;94.70;;;;;;4978121;28;20595;-84
2022/03/13 04:59:28;;;;;;;24.33;14.60;;;4.40;94.90;;;;;;4978174;28;20319;-84
2022/03/13 05:01:55;;;;;;;25.40;15.50;;;4.50;94.60;;;;;;4978351;28;20584;-84
2022/03/13 05:04:22;;;;;;;30.98;15.98;;;4.40;94.60;;;;;;4994278;28;20236;-84
2022/03/13 05:06:48;;;;;;;22.23;14.65;;;4.40;94.70;;;;;;4980177;28;20236;-84
2022/03/13 05:09:17;;;;;;;24.88;14.05;;;4.30;95.00;;;;;;4979491;28;20247;-83
2022/03/13 05:11:43;;;;;;;26.17;15.93;;;4.40;95.00;;;;;;4984889;28;20217;-82
2022/03/13 05:14:10;;;;;;;27.40;15.35;;;4.50;95.60;;;;;;4979035;28;20270;-83
2022/03/13 05:16:37;;;;;;;21.95;15.20;;;4.30;95.50;;;;;;4978619;28;20295;-85
2022/03/13 05:19:06;;;;;;;23.90;14.25;;;4.30;96.10;;;;;;4977925;28;20201;-83
2022/03/13 05:21:33;;;;;;;24.08;14.38;;;4.30;96.00;;;;;;4977972;28;20371;-85
2022/03/13 05:24:00;;;;;;;23.88;15.15;;;4.20;95.90;;;;;;4978543;28;20283;-83
2022/03/13 05:26:28;;;;;;;24.52;14.45;;;4.40;95.80;;;;;;4978713;28;20664;-84
2022/03/13 05:28:56;;;;;;;24.50;15.60;;;4.30;95.90;;;;;;4980035;28;20216;-84
2022/03/13 05:31:23;;;;;;;27.35;15.15;;;4.30;96.10;;;;;;4979802;28;20719;-85
2022/03/13 05:33:49;;;;;;;25.25;15.73;;;4.10;96.20;;;;;;4978280;28;20224;-84
2022/03/13 05:36:17;;;;;;;25.55;15.68;;;4.50;96.50;;;;;;4977851;28;20327;-84
2022/03/13 05:38:43;;;;;;;24.52;15.52;;;4.30;96.50;;;;;;4978695;28;20212;-84
2022/03/13 05:41:11;;;;;;;27.30;15.93;;;4.30;96.50;;;;;;4977787;28;20299;-84
2022/03/13 05:43:42;;;;;;;30.42;16.88;;;4.60;96.50;;;;;;4977423;28;20213;-83
2022/03/13 05:46:10;;;;;;;24.58;14.73;;;4.60;96.40;;;;;;4978016;28;20308;-84
2022/03/13 05:48:37;;;;;;;26.67;14.85;;;4.50;96.30;;;;;;4982895;28;20229;-84
2022/03/13 05:51:03;;;;;;;24.52;14.90;;;4.60;95.80;;;;;;4978487;28;20244;-84
2022/03/13 05:53:30;;;;;;;21.15;14.80;;;4.80;95.90;;;;;;4981285;28;20232;-85
2022/03/13 05:55:57;;;;;;;31.92;15.45;;;4.90;96.10;;;;;;4995207;28;20200;-84
2022/03/13 05:58:24;;;;;;;24.85;14.70;;;4.70;96.00;;;;;;4996212;28;20232;-84
2022/03/13 06:01:01;;;;;;;25.23;15.10;;;4.70;95.90;;;;;;4994785;28;20283;-85
2022/03/13 06:03:28;;;;;;;23.50;14.65;;;4.70;95.90;;;;;;4993133;28;20276;-84
2022/03/13 06:05:56;;;;;;;26.00;14.95;;;4.70;95.80;;;;;;4987349;28;20208;-83
2022/03/13 06:08:22;;;;;;;25.13;15.50;;;4.80;95.70;;;;;;4987695;28;20699;-84
2022/03/13 06:10:51;;;;;;;24.55;16.15;;;4.90;95.60;;;;;;4981478;28;20695;-83
2022/03/13 06:13:19;;;;;;;26.45;16.13;;;4.90;95.80;;;;;;4978905;28;20205;-84
2022/03/13 06:15:46;;;;;;;23.35;14.30;;;4.90;96.40;;;;;;4977742;28;20703;-83
2022/03/13 06:18:14;;;;;;;24.63;15.57;;;4.80;96.40;;;;;;4978965;28;20307;-83
2022/03/13 06:20:41;;;;;;;21.85;14.52;;;4.60;96.40;;;;;;4981901;28;20635;-85
2022/03/13 06:23:09;;;;;;;26.20;15.73;;;4.60;96.50;;;;;;4981277;28;20359;-83
2022/03/13 06:25:36;;;;;;;25.15;16.48;;;4.70;96.50;;;;;;4992812;28;20265;-82
2022/03/13 06:28:03;;;;;;;27.20;15.85;;;4.50;97.00;;;;;;4981348;28;20251;-83
2022/03/13 06:30:31;;;;;;;26.50;16.70;;;4.20;97.70;;;;;;4981997;28;20650;-84
2022/03/13 06:32:58;;;;;;;23.02;15.88;;;4.50;98.30;;;;;;4982616;28;20537;-84
2022/03/13 06:35:26;;;;;;;23.10;16.55;;;4.70;98.00;;;;;;4986425;28;20251;-83
2022/03/13 06:37:54;;;;;;;25.80;15.23;;;4.90;97.90;;;;;;4997213;28;20215;-83
2022/03/13 06:40:23;;;;;;;24.85;17.15;;;4.80;97.50;;;;;;4998155;28;20275;-83
2022/03/13 06:42:54;;;;;;;23.38;15.60;;;4.80;97.60;;;;;;4988064;28;20277;-84
2022/03/13 06:45:22;;;;;;;25.20;17.00;;;4.80;98.00;;;;;;4996371;28;20278;-85
2022/03/13 06:47:50;;;;;;;25.90;16.95;;;4.90;98.20;;;;;;4987453;28;20319;-84
2022/03/13 06:50:18;;;;;;;24.90;15.95;;;4.80;98.00;;;;;;4990864;28;20209;-83
2022/03/13 06:52:48;;;;;;;21.95;15.35;;;5.20;97.90;;;;;;4990655;28;20236;-83
2022/03/13 06:55:16;;;;;;;34.40;16.20;;;5.30;97.50;;;;;;4988911;28;20604;-84
2022/03/13 06:57:43;;;;;;;26.45;16.60;;;5.30;97.40;;;;;;4984173;28;20228;-83
2022/03/13 07:00:12;;;;;;;26.77;17.83;;;5.20;97.40;;;;;;4982863;28;20239;-84
2022/03/13 07:02:39;;;;;;;26.25;16.73;;;5.20;97.60;;;;;;4987776;28;20268;-84
2022/03/13 07:05:07;;;;;;;27.45;17.20;;;5.20;97.60;;;;;;4993233;28;20229;-87
2022/03/13 07:07:35;;;;;;;37.13;19.35;;;5.40;97.80;;;;;;4982335;28;20235;-87
2022/03/13 07:10:06;;;;;;;30.55;17.20;;;5.40;97.60;;;;;;4982091;28;20696;-88
2022/03/13 07:12:35;;;;;;;27.70;16.80;;;5.40;97.50;;;;;;4982965;28;20220;-87
2022/03/13 07:15:10;;;;;;;28.92;17.30;;;5.60;97.20;;;;;;4983953;28;20244;-86
2022/03/13 07:17:39;;;;;;;30.83;18.45;;;5.40;96.90;;;;;;4993863;28;20581;-85
2022/03/13 07:20:07;;;;;;;28.67;17.23;;;5.50;96.20;;;;;;4985869;28;20249;-86
2022/03/13 07:22:34;;;;;;;31.50;19.20;;;5.60;95.90;;;;;;4990159;28;20236;-86
2022/03/13 07:25:04;;;;;;;29.77;20.80;;;5.80;95.80;;;;;;4990820;28;20232;-87
2022/03/13 07:27:31;;;;;;;29.73;19.15;;;5.70;96.20;;;;;;4987250;28;20235;-88
2022/03/13 07:29:58;;;;;;;29.23;19.23;;;5.60;96.00;;;;;;4982120;28;20243;-88
2022/03/13 07:32:25;;;;;;;27.40;18.20;;;5.50;95.80;;;;;;4982624;28;20205;-87
2022/03/13 07:34:55;;;;;;;29.67;19.23;;;5.50;95.50;;;;;;4982300;28;20305;-88
2022/03/13 07:37:22;;;;;;;32.15;18.70;;;6.00;95.40;;;;;;4982675;28;20255;-87
2022/03/13 07:39:49;;;;;;;28.42;18.67;;;6.00;94.90;;;;;;4983724;28;20208;-86
2022/03/13 07:42:17;;;;;;;30.48;20.10;;;6.40;94.70;;;;;;4982526;28;20208;-87
2022/03/13 07:44:44;;;;;;;29.77;19.13;;;6.30;94.30;;;;;;4981583;28;20395;-86
2022/03/13 07:47:11;;;;;;;27.52;18.77;;;6.40;93.90;;;;;;4981471;28;20606;-86
2022/03/13 07:49:38;;;;;;;26.35;16.90;;;6.40;93.80;;;;;;4980920;28;20216;-87
2022/03/13 07:52:06;;;;;;;31.58;18.83;;;6.50;93.70;;;;;;4979717;28;20690;-86
2022/03/13 07:54:33;;;;;;;30.52;20.02;;;6.60;93.70;;;;;;4987515;28;20235;-86
2022/03/13 07:57:00;;;;;;;28.95;19.75;;;6.50;93.60;;;;;;4991700;28;20189;-85
2022/03/13 07:59:28;;;;;;;33.03;19.67;;;6.90;93.20;;;;;;4980691;28;20709;-85
2022/03/13 08:01:55;;;;;;;32.42;19.55;;;6.70;92.70;;;;;;4981629;28;20217;-85
2022/03/13 08:04:22;;;;;;;25.95;18.77;;;7.10;92.60;;;;;;4979118;28;20233;-85
2022/03/13 08:06:49;;;;;;;31.20;19.77;;;7.20;92.50;;;;;;4981761;28;20233;-86
2022/03/13 08:09:16;;;;;;;24.42;17.35;;;7.40;92.30;;;;;;4987078;28;20231;-85
2022/03/13 08:11:43;;;;;;;29.30;17.85;;;7.60;91.70;;;;;;4986698;28;20312;-85
2022/03/13 08:14:12;;;;;;;29.37;19.23;;;7.60;91.20;;;;;;4983830;28;20228;-88
2022/03/13 08:16:40;;;;;;;27.97;17.67;;;7.70;90.80;;;;;;4981650;28;20445;-88
2022/03/13 08:19:09;;;;;;;27.93;18.30;;;7.80;90.50;;;;;;4981104;28;20460;-86
2022/03/13 08:21:37;;;;;;;25.40;18.00;;;7.90;90.30;;;;;;4984697;28;20456;-88
2022/03/13 08:24:07;;;;;;;25.07;17.80;;;8.10;90.10;;;;;;4993956;28;20228;-87
2022/03/13 08:26:35;;;;;;;25.10;17.10;;;8.10;90.00;;;;;;4979869;28;20500;-87
2022/03/13 08:29:02;;;;;;;24.80;16.77;;;8.20;88.80;;;;;;4982476;28;20623;-87
2022/03/13 08:31:28;;;;;;;27.90;17.97;;;8.30;87.20;;;;;;4980038;28;20212;-88
2022/03/13 08:33:57;;;;;;;26.63;15.67;;;8.50;86.80;;;;;;4980778;28;20495;-88
2022/03/13 08:36:24;;;;;;;23.77;16.30;;;8.70;85.70;;;;;;4996273;28;20445;-88
2022/03/13 08:38:52;;;;;;;24.93;15.60;;;8.80;83.50;;;;;;4983123;28;20456;-88
2022/03/13 08:41:19;;;;;;;24.37;16.50;;;9.00;83.00;;;;;;4981672;28;20490;-87
2022/03/13 08:43:46;;;;;;;27.37;16.27;;;9.10;82.40;;;;;;4981272;28;20464;-88
2022/03/13 08:46:13;;;;;;;23.30;16.43;;;9.30;81.90;;;;;;4980065;28;20460;-86
2022/03/13 08:48:42;;;;;;;27.17;19.37;;;9.50;81.40;;;;;;4981127;28;20488;-87
2022/03/13 08:51:13;;;;;;;26.23;18.00;;;9.70;81.30;;;;;;4983402;28;20491;-87
2022/03/13 08:53:46;;;;;;;27.30;18.73;;;9.60;80.90;;;;;;4994910;28;20491;-87
2022/03/13 08:56:14;;;;;;;31.43;19.27;;;9.70;80.70;;;;;;4995640;28;20511;-86
2022/03/13 08:58:41;;;;;;;24.63;17.97;;;9.60;80.50;;;;;;4990811;28;20444;-86
2022/03/13 09:01:09;;;;;;;25.10;17.90;;;9.70;80.10;;;;;;4990304;28;20464;-88
2022/03/13 09:03:38;;;;;;;25.47;17.10;;;9.80;79.60;;;;;;4986208;28;20494;-87
2022/03/13 09:06:05;;;;;;;30.40;19.60;;;9.80;79.90;;;;;;4978836;28;20547;-87
2022/03/13 09:08:34;;;;;;;30.07;18.63;;;9.80;80.00;;;;;;4979482;28;20458;-86
2022/03/13 09:11:01;;;;;;;21.83;16.33;;;9.90;79.80;;;;;;4981088;28;20891;-86
2022/03/13 09:13:28;;;;;;;28.60;16.83;;;10.10;78.30;;;;;;4980918;28;20834;-86
2022/03/13 09:15:56;;;;;;;24.83;17.27;;;10.20;78.40;;;;;;4980172;28;20423;-86
2022/03/13 09:18:23;;;;;;;25.17;17.97;;;10.30;78.40;;;;;;4980426;28;20448;-87
2022/03/13 09:20:50;;;;;;;25.40;17.13;;;10.40;78.20;;;;;;4979920;28;20426;-85
2022/03/13 09:23:17;;;;;;;26.60;18.00;;;10.60;77.80;;;;;;4979586;28;20427;-87
2022/03/13 09:25:45;;;;;;;26.83;17.57;;;10.70;76.90;;;;;;4979944;28;20568;-84
2022/03/13 09:28:12;;;;;;;23.77;16.50;;;11.00;76.90;;;;;;4980286;28;20635;-85
2022/03/13 09:30:39;;;;;;;28.93;19.63;;;11.10;75.50;;;;;;4982324;28;20465;-86
2022/03/13 09:33:06;;;;;;;28.40;18.10;;;11.10;75.20;;;;;;4983668;28;20444;-87
2022/03/13 09:35:33;;;;;;;25.37;17.97;;;11.10;75.00;;;;;;5007186;23;20529;-87
2022/03/13 09:38:02;;;;;;;28.37;18.37;;;11.10;75.30;;;;;;4991246;28;20440;-87
2022/03/13 09:40:29;;;;;;;29.67;18.67;;;11.00;75.20;;;;;;4993989;28;20455;-86
2022/03/13 09:42:57;;;;;;;27.90;17.93;;;11.20;74.90;;;;;;4987772;28;20426;-87
2022/03/13 09:45:24;;;;;;;31.50;18.13;;;11.30;74.20;;;;;;4984020;28;20475;-87
2022/03/13 09:47:52;;;;;;;25.30;18.23;;;11.30;73.90;;;;;;4986149;28;20483;-87
2022/03/13 09:50:19;;;;;;;26.00;18.30;;;11.40;74.00;;;;;;4989285;28;20464;-87
2022/03/13 09:52:46;;;;;;;24.17;17.93;;;11.40;73.60;;;;;;4984403;28;20452;-87
2022/03/13 09:55:14;;;;;;;24.83;16.43;;;11.60;72.50;;;;;;4983464;28;20468;-86
2022/03/13 09:57:42;;;;;;;24.80;18.43;;;11.60;71.30;;;;;;4983726;28;20444;-87
2022/03/13 10:00:13;;;;;;;25.77;16.90;;;11.60;71.50;;;;;;4983278;28;20466;-87
2022/03/13 10:02:41;;;;;;;21.40;16.13;;;11.60;71.30;;;;;;4984047;28;20440;-88
2022/03/13 10:05:10;;;;;;;24.40;17.10;;;11.70;71.30;;;;;;4984911;28;20439;-86
2022/03/13 10:07:57;;;;;;;26.40;19.20;;;11.70;70.90;;;;;;4987810;28;20484;-83
2022/03/13 10:10:26;;;;;;;26.67;19.20;;;11.80;71.10;;;;;;4989379;28;20529;-86
2022/03/13 10:12:53;;;;;;;30.60;19.80;;;11.80;70.80;;;;;;4992591;28;20444;-85
2022/03/13 10:15:21;;;;;;;25.43;16.70;;;12.00;71.20;;;;;;4998634;28;20472;-87
2022/03/13 10:17:49;;;;;;;24.90;18.20;;;12.20;70.00;;;;;;4997597;28;20798;-85
2022/03/13 10:20:19;;;;;;;27.60;20.37;;;12.30;70.20;;;;;;4993710;28;20473;-85
2022/03/13 10:22:48;;;;;;;25.90;17.10;;;12.40;69.70;;;;;;4994008;28;20415;-86
2022/03/13 10:25:29;;;;;;;29.07;17.93;;;12.50;68.60;;;;;;4993846;28;20841;-87
2022/03/13 10:28:01;;;;;;;25.90;17.07;;;12.50;68.70;;;;;;4988831;28;20447;-86
2022/03/13 10:30:30;;;;;;;27.73;19.03;;;12.50;68.80;;;;;;4986099;28;20906;-83
2022/03/13 10:32:58;;;;;;;25.33;19.20;;;12.50;68.70;;;;;;4984318;28;20528;-87
2022/03/13 10:35:25;;;;;;;26.07;17.63;;;12.60;68.40;;;;;;4984209;28;20516;-86
2022/03/13 10:37:51;;;;;;;23.57;17.97;;;12.70;68.30;;;;;;4983900;28;20984;-85
2022/03/13 10:40:22;;;;;;;26.10;18.00;;;12.70;68.10;;;;;;4985520;28;20535;-85
2022/03/13 10:42:50;;;;;;;23.70;16.43;;;12.80;67.90;;;;;;4985041;28;20460;-86
2022/03/13 10:45:36;;;;;;;25.87;18.03;;;12.90;67.30;;;;;;4987325;28;20485;-84
2022/03/13 10:48:21;;;;;;;25.77;18.20;;;12.90;67.50;;;;;;4989756;28;20472;-86
2022/03/13 10:50:50;;;;;;;27.43;19.00;;;13.00;67.50;;;;;;4993738;28;20434;-86
2022/03/13 10:53:18;;;;;;;27.07;17.30;;;13.00;67.20;;;;;;4994347;28;20426;-86
2022/03/13 10:55:45;;;;;;;27.37;16.93;;;13.20;66.70;;;;;;4987853;28;20470;-86
2022/03/13 10:58:12;;;;;;;25.13;17.43;;;13.20;66.50;;;;;;4985308;28;20506;-86
2022/03/13 11:00:40;;;;;;;27.87;19.47;;;13.20;66.40;;;;;;4983448;28;20472;-85
2022/03/13 11:03:12;;;;;;;27.10;20.73;;;13.30;66.40;;;;;;4986278;28;20508;-85
2022/03/13 11:05:40;;;;;;;23.20;17.83;;;13.40;66.30;;;;;;4989820;28;20482;-84
2022/03/13 11:08:08;;;;;;;26.47;19.27;;;13.50;65.60;;;;;;4987064;28;20462;-86
2022/03/13 11:10:37;;;;;;;28.10;18.17;;;13.60;65.10;;;;;;4983308;28;20941;-86
2022/03/13 11:13:05;;;;;;;31.30;22.63;;;13.70;65.00;;;;;;4985137;28;20516;-86
2022/03/13 11:15:35;;;;;;;28.23;20.03;;;13.80;64.40;;;;;;4983255;28;20533;-85
2022/03/13 11:18:06;;;;;;;32.00;18.90;;;13.90;63.60;;;;;;4983915;28;20427;-86
2022/03/13 11:20:34;;;;;;;25.60;16.63;;;13.90;63.80;;;;;;4983251;28;20422;-86
2022/03/13 11:23:01;;;;;;;29.10;21.00;;;14.00;63.30;;;;;;4983820;28;20423;-86
2022/03/13 11:25:28;;;;;;;28.63;19.93;;;14.10;62.70;;;;;;4983574;28;20545;-85
2022/03/13 11:27:56;;;;;;;25.40;20.10;;;14.10;61.70;;;;;;4982584;28;20485;-86
2022/03/13 11:30:32;;;;;;;29.47;19.93;;;14.10;61.90;;;;;;4983838;28;20551;-83
2022/03/13 11:33:00;;;;;;;29.47;20.17;;;14.10;61.00;;;;;;4984965;28;20431;-84
2022/03/13 11:35:31;;;;;;;27.30;18.63;;;14.00;61.10;;;;;;4984963;28;20516;-85
2022/03/13 11:38:20;;;;;;;27.47;18.70;;;14.10;61.10;;;;;;4992539;28;20464;-86
2022/03/13 11:40:47;;;;;;;26.90;19.13;;;14.20;60.70;;;;;;4993149;28;20426;-83
2022/03/13 11:43:16;;;;;;;29.27;20.80;;;14.30;60.90;;;;;;4988575;28;20930;-85
2022/03/13 11:45:48;;;;;;;26.40;19.43;;;14.30;60.90;;;;;;4996930;28;20431;-85
2022/03/13 11:48:45;;;;;;;28.30;18.80;;;14.30;61.50;;;;;;4998361;28;21034;-87
2022/03/13 11:51:29;;;;;;;30.47;21.40;;;14.40;61.30;;;;;;4989033;28;20388;-85
2022/03/13 11:53:58;;;;;;;30.43;18.10;;;14.40;61.50;;;;;;4983150;28;20982;-86
2022/03/13 11:56:27;;;;;;;30.53;19.13;;;14.50;60.90;;;;;;4982489;28;20447;-86
2022/03/13 11:58:56;;;;;;;25.87;18.30;;;14.60;60.80;;;;;;4994928;28;20446;-87
2022/03/13 12:01:36;;;;;;;28.77;20.43;;;14.70;61.20;;;;;;4983806;28;20930;-85
2022/03/13 12:04:25;;;;;;;28.03;20.60;;;14.80;60.40;;;;;;4982764;28;20531;-86
2022/03/13 12:06:56;;;;;;;31.37;21.33;;;14.90;60.20;;;;;;4984056;28;20835;-85
2022/03/13 12:09:41;;;;;;;25.40;16.80;;;14.90;60.10;;;;;;4984029;28;20443;-86
2022/03/13 12:12:09;;;;;;;27.23;19.40;;;14.90;59.60;;;;;;4982420;28;20748;-86
2022/03/13 12:15:02;;;;;;;27.47;17.30;;;14.90;59.30;;;;;;4982595;28;20450;-85
2022/03/13 12:17:30;;;;;;;25.40;18.97;;;15.00;58.30;;;;;;4986109;28;20479;-86
2022/03/13 12:19:59;;;;;;;24.60;16.37;;;15.10;58.50;;;;;;4982245;28;20886;-85
2022/03/13 12:22:31;;;;;;;27.67;19.30;;;15.20;58.00;;;;;;4983089;28;20491;-85
2022/03/13 12:24:59;;;;;;;25.50;16.93;;;15.20;58.00;;;;;;4983466;28;20435;-85
2022/03/13 12:27:27;;;;;;;25.20;18.20;;;15.20;57.50;;;;;;4982097;28;20480;-86
2022/03/13 12:29:56;;;;;;;24.23;12.80;;;15.20;57.60;;;;;;4992883;28;20507;-84
2022/03/13 12:32:33;;;;;;;29.40;19.80;;;15.20;57.20;;;;;;4988266;28;20464;-86
2022/03/13 12:35:01;;;;;;;27.23;19.00;;;15.20;57.40;;;;;;4981826;28;20533;-86
2022/03/13 12:37:29;;;;;;;30.37;18.23;;;15.30;57.50;;;;;;4984047;28;20461;-86
2022/03/13 12:39:59;;;;;;;27.43;18.50;;;15.30;57.00;;;;;;4982620;28;20519;-87
2022/03/13 12:42:28;;;;;;;28.73;19.50;;;15.30;57.10;;;;;;4981918;28;20829;-86
2022/03/13 12:45:01;;;;;;;28.27;19.50;;;15.40;57.00;;;;;;4983957;28;20472;-85
2022/03/13 12:47:28;;;;;;;26.40;18.90;;;15.40;56.70;;;;;;4986695;28;20437;-86
2022/03/13 12:49:58;;;;;;;25.23;19.30;;;15.50;56.60;;;;;;4987597;28;20571;-86
2022/03/13 12:52:27;;;;;;;27.60;18.70;;;15.50;56.10;;;;;;4986548;28;20830;-86
2022/03/13 12:54:59;;;;;;;27.90;20.53;;;15.50;56.30;;;;;;4982944;28;20474;-86
2022/03/13 12:57:26;;;;;;;26.20;18.20;;;15.60;56.10;;;;;;4982204;28;20438;-86
2022/03/13 12:59:53;;;;;;;30.20;19.87;;;15.60;55.90;;;;;;4982585;28;20503;-84
2022/03/13 13:02:23;;;;;;;28.17;18.47;;;15.50;55.90;;;;;;4984957;28;20466;-86
2022/03/13 13:04:51;;;;;;;27.07;20.43;;;15.40;56.00;;;;;;4984537;28;20447;-86
2022/03/13 13:07:20;;;;;;;30.20;18.60;;;15.50;56.10;;;;;;4988263;28;20529;-85
2022/03/13 13:09:48;;;;;;;25.93;16.70;;;15.50;56.20;;;;;;4981250;28;20532;-86
2022/03/13 13:12:19;;;;;;;26.97;18.27;;;15.60;55.40;;;;;;4987145;28;21010;-85
2022/03/13 13:14:47;;;;;;;27.33;19.00;;;15.50;55.40;;;;;;4992980;28;20511;-86
2022/03/13 13:17:15;;;;;;;27.00;16.93;;;15.60;55.50;;;;;;4983569;28;20539;-85
2022/03/13 13:19:43;;;;;;;26.47;19.03;;;15.70;55.20;;;;;;4982631;28;20788;-86
2022/03/13 13:22:11;;;;;;;30.40;19.00;;;15.70;55.10;;;;;;4984119;28;20446;-86
2022/03/13 13:24:50;;;;;;;30.07;20.23;;;15.90;54.90;;;;;;4980477;28;20969;-87
2022/03/13 13:27:31;;;;;;;26.80;19.97;;;15.90;54.80;;;;;;4980612;28;20410;-87